sensor_id;sensor_type;location;lat;lon;timestamp;pressure;altitude;pressure_sealevel;temperature;humidity
41573;BME280;27286;47.870;19.006;2023-04-20T00:02:18;99191.75;;;5.39;100.00
41573;BME280;27286;47.870;19.006;2023-04-20T00:04:43;99192.03;;;5.63;100.00
41573;BME280;27286;47.870;19.006;2023-04-20T00:07:09;99187.50;;;5.71;100.00
41573;BME280;27286;47.870;19.006;2023-04-20T00:09:35;99188.44;;;5.68;100.00
41573;BME280;27286;47.870;19.006;2023-04-20T00:12:00;99186.44;;;5.80;100.00
41573;BME280;27286;47.870;19.006;2023-04-20T00:14:26;99184.94;;;5.69;100.00
41573;BME280;27286;47.870;19.006;2023-04-20T00:16:51;99181.59;;;5.66;100.00
41573;BME280;27286;47.870;19.006;2023-04-20T00:19:17;99180.88;;;5.61;100.00
41573;BME280;27286;47.870;19.006;2023-04-20T00:21:42;99180.88;;;5.61;100.00
41573;BME280;27286;47.870;19.006;2023-04-20T00:24:08;99175.84;;;5.56;100.00
41573;BME280;27286;47.870;19.006;2023-04-20T00:26:33;99177.72;;;5.50;100.00
41573;BME280;27286;47.870;19.006;2023-04-20T00:28:59;99172.84;;;5.39;100.00
41573;BME280;27286;47.870;19.006;2023-04-20T00:31:24;99178.25;;;5.28;100.00
41573;BME280;27286;47.870;19.006;2023-04-20T00:33:50;99172.31;;;5.25;100.00
41573;BME280;27286;47.870;19.006;2023-04-20T00:36:15;99166.22;;;5.27;100.00
41573;BME280;27286;47.870;19.006;2023-04-20T00:38:40;99177.41;;;5.28;100.00
41573;BME280;27286;47.870;19.006;2023-04-20T00:41:06;99177.44;;;5.26;100.00
41573;BME280;27286;47.870;19.006;2023-04-20T00:43:31;99174.94;;;5.23;100.00
41573;BME280;27286;47.870;19.006;2023-04-20T00:45:57;99173.97;;;5.27;100.00
41573;BME280;27286;47.870;19.006;2023-04-20T00:48:22;99179.97;;;5.28;100.00
41573;BME280;27286;47.870;19.006;2023-04-20T00:50:49;99179.97;;;5.28;100.00
41573;BME280;27286;47.870;19.006;2023-04-20T00:53:15;99176.47;;;5.30;100.00
41573;BME280;27286;47.870;19.006;2023-04-20T00:55:42;99174.13;;;5.21;100.00
41573;BME280;27286;47.870;19.006;2023-04-20T00:58:08;99182.47;;;5.31;100.00
41573;BME280;27286;47.870;19.006;2023-04-20T01:00:34;99178.25;;;5.28;100.00
41573;BME280;27286;47.870;19.006;2023-04-20T01:02:59;99180.59;;;5.37;100.00
41573;BME280;27286;47.870;19.006;2023-04-20T01:05:25;99183.16;;;5.37;100.00
41573;BME280;27286;47.870;19.006;2023-04-20T01:07:51;99178.00;;;5.37;100.00
41573;BME280;27286;47.870;19.006;2023-04-20T01:10:16;99183.25;;;5.34;100.00
41573;BME280;27286;47.870;19.006;2023-04-20T01:12:43;99172.97;;;5.33;100.00
41573;BME280;27286;47.870;19.006;2023-04-20T01:15:09;99176.31;;;5.38;100.00
41573;BME280;27286;47.870;19.006;2023-04-20T01:17:35;99172.75;;;5.42;100.00
41573;BME280;27286;47.870;19.006;2023-04-20T01:20:07;99169.19;;;5.46;100.00
41573;BME280;27286;47.870;19.006;2023-04-20T01:22:42;99170.84;;;5.49;100.00
41573;BME280;27286;47.870;19.006;2023-04-20T01:25:08;99172.47;;;5.53;100.00
41573;BME280;27286;47.870;19.006;2023-04-20T01:27:34;99179.31;;;5.54;100.00
41573;BME280;27286;47.870;19.006;2023-04-20T01:29:59;99175.97;;;5.50;100.00
41573;BME280;27286;47.870;19.006;2023-04-20T01:32:25;99170.13;;;5.43;100.00
41573;BME280;27286;47.870;19.006;2023-04-20T01:34:50;99179.50;;;5.48;100.00
41573;BME280;27286;47.870;19.006;2023-04-20T01:37:16;99180.25;;;5.51;100.00
41573;BME280;27286;47.870;19.006;2023-04-20T01:39:41;99183.63;;;5.55;100.00
41573;BME280;27286;47.870;19.006;2023-04-20T01:42:08;99177.41;;;5.62;100.00
41573;BME280;27286;47.870;19.006;2023-04-20T01:44:33;99177.38;;;5.63;100.00
41573;BME280;27286;47.870;19.006;2023-04-20T01:46:58;99178.25;;;5.62;100.00
41573;BME280;27286;47.870;19.006;2023-04-20T01:49:24;99177.41;;;5.62;100.00
41573;BME280;27286;47.870;19.006;2023-04-20T01:51:49;99176.56;;;5.61;100.00
41573;BME280;27286;47.870;19.006;2023-04-20T01:54:15;99170.44;;;5.65;100.00
41573;BME280;27286;47.870;19.006;2023-04-20T01:56:40;99168.56;;;5.70;100.00
41573;BME280;27286;47.870;19.006;2023-04-20T01:59:06;99168.56;;;5.72;100.00
41573;BME280;27286;47.870;19.006;2023-04-20T02:01:31;99172.00;;;5.72;100.00
41573;BME280;27286;47.870;19.006;2023-04-20T02:03:56;99166.03;;;5.69;100.00
41573;BME280;27286;47.870;19.006;2023-04-20T02:06:22;99168.59;;;5.69;100.00
41573;BME280;27286;47.870;19.006;2023-04-20T02:08:47;99164.28;;;5.69;100.00
41573;BME280;27286;47.870;19.006;2023-04-20T02:11:13;99168.59;;;5.69;100.00
41573;BME280;27286;47.870;19.006;2023-04-20T02:13:38;99174.63;;;5.69;100.00
41573;BME280;27286;47.870;19.006;2023-04-20T02:16:04;99168.47;;;5.75;100.00
41573;BME280;27286;47.870;19.006;2023-04-20T02:18:30;99164.06;;;5.79;100.00
41573;BME280;27286;47.870;19.006;2023-04-20T02:20:57;99165.81;;;5.78;100.00
41573;BME280;27286;47.870;19.006;2023-04-20T02:23:23;99172.66;;;5.79;100.00
41573;BME280;27286;47.870;19.006;2023-04-20T02:25:48;99168.38;;;5.78;100.00
41573;BME280;27286;47.870;19.006;2023-04-20T02:28:14;99168.38;;;5.78;100.00
41573;BME280;27286;47.870;19.006;2023-04-20T02:30:39;99174.34;;;5.80;100.00
41573;BME280;27286;47.870;19.006;2023-04-20T02:33:05;99174.34;;;5.80;100.00
41573;BME280;27286;47.870;19.006;2023-04-20T02:35:31;99163.13;;;5.81;100.00
41573;BME280;27286;47.870;19.006;2023-04-20T02:37:56;99166.53;;;5.83;100.00
41573;BME280;27286;47.870;19.006;2023-04-20T02:40:22;99166.25;;;5.95;100.00
41573;BME280;27286;47.870;19.006;2023-04-20T02:42:47;99155.06;;;5.95;100.00
41573;BME280;27286;47.870;19.006;2023-04-20T02:45:12;99165.53;;;5.90;100.00
41573;BME280;27286;47.870;19.006;2023-04-20T02:47:38;99168.03;;;5.93;100.00
41573;BME280;27286;47.870;19.006;2023-04-20T02:50:04;99171.59;;;5.86;100.00
41573;BME280;27286;47.870;19.006;2023-04-20T02:52:30;99164.06;;;5.79;100.00
41573;BME280;27286;47.870;19.006;2023-04-20T02:54:55;99170.28;;;5.71;100.00
41573;BME280;27286;47.870;19.006;2023-04-20T02:57:21;99164.25;;;5.71;100.00
41573;BME280;27286;47.870;19.006;2023-04-20T02:59:46;99168.59;;;5.69;100.00
41573;BME280;27286;47.870;19.006;2023-04-20T03:02:11;99173.72;;;5.72;100.00
41573;BME280;27286;47.870;19.006;2023-04-20T03:04:37;99166.97;;;5.66;100.00
41573;BME280;27286;47.870;19.006;2023-04-20T03:07:03;99168.91;;;5.58;100.00
41573;BME280;27286;47.870;19.006;2023-04-20T03:09:29;99169.00;;;5.54;100.00
41573;BME280;27286;47.870;19.006;2023-04-20T03:11:54;99172.59;;;5.48;100.00
41573;BME280;27286;47.870;19.006;2023-04-20T03:14:20;99174.53;;;5.40;100.00
41573;BME280;27286;47.870;19.006;2023-04-20T03:16:45;99177.19;;;5.35;100.00
41573;BME280;27286;47.870;19.006;2023-04-20T03:19:11;99177.34;;;5.29;100.00
41573;BME280;27286;47.870;19.006;2023-04-20T03:21:36;99178.97;;;5.33;100.00
41573;BME280;27286;47.870;19.006;2023-04-20T03:24:03;99178.44;;;5.19;100.00
41573;BME280;27286;47.870;19.006;2023-04-20T03:26:28;99177.41;;;5.28;100.00
41573;BME280;27286;47.870;19.006;2023-04-20T03:28:54;99182.88;;;5.14;100.00
41573;BME280;27286;47.870;19.006;2023-04-20T03:31:20;99183.16;;;5.02;100.00
41573;BME280;27286;47.870;19.006;2023-04-20T03:33:45;99181.56;;;4.96;100.00
41573;BME280;27286;47.870;19.006;2023-04-20T03:36:11;99176.56;;;4.90;100.00
41573;BME280;27286;47.870;19.006;2023-04-20T03:38:36;99184.38;;;4.86;100.00
41573;BME280;27286;47.870;19.006;2023-04-20T03:41:02;99183.63;;;4.80;100.00
41573;BME280;27286;47.870;19.006;2023-04-20T03:43:27;99191.59;;;4.70;100.00
41573;BME280;27286;47.870;19.006;2023-04-20T03:45:52;99188.44;;;4.57;100.00
41573;BME280;27286;47.870;19.006;2023-04-20T03:48:18;99193.72;;;4.51;100.00
41573;BME280;27286;47.870;19.006;2023-04-20T03:50:43;99194.72;;;4.44;100.00
41573;BME280;27286;47.870;19.006;2023-04-20T03:53:09;99195.66;;;4.41;100.00
41573;BME280;27286;47.870;19.006;2023-04-20T03:55:34;99200.97;;;4.32;100.00
41573;BME280;27286;47.870;19.006;2023-04-20T03:57:59;99200.31;;;4.22;100.00
41573;BME280;27286;47.870;19.006;2023-04-20T04:00:25;99203.03;;;4.15;100.00
41573;BME280;27286;47.870;19.006;2023-04-20T04:02:50;99202.28;;;4.08;100.00
41573;BME280;27286;47.870;19.006;2023-04-20T04:05:16;99206.63;;;4.06;100.00
41573;BME280;27286;47.870;19.006;2023-04-20T04:07:41;99209.94;;;4.13;100.00
41573;BME280;27286;47.870;19.006;2023-04-20T04:10:07;99201.25;;;4.17;100.00
41573;BME280;27286;47.870;19.006;2023-04-20T04:12:33;99202.69;;;4.32;100.00
41573;BME280;27286;47.870;19.006;2023-04-20T04:14:58;99202.53;;;4.41;100.00
41573;BME280;27286;47.870;19.006;2023-04-20T04:17:24;99202.44;;;4.45;100.00
41573;BME280;27286;47.870;19.006;2023-04-20T04:19:49;99209.13;;;4.54;100.00
41573;BME280;27286;47.870;19.006;2023-04-20T04:22:15;99198.81;;;4.54;100.00
41573;BME280;27286;47.870;19.006;2023-04-20T04:24:40;99197.09;;;4.53;100.00
41573;BME280;27286;47.870;19.006;2023-04-20T04:27:06;99201.41;;;4.54;100.00
41573;BME280;27286;47.870;19.006;2023-04-20T04:29:32;99203.16;;;4.50;100.00
41573;BME280;27286;47.870;19.006;2023-04-20T04:32:01;99204.06;;;4.49;100.00
41573;BME280;27286;47.870;19.006;2023-04-20T04:34:28;99205.72;;;4.52;100.00
41573;BME280;27286;47.870;19.006;2023-04-20T04:36:54;99203.09;;;4.55;100.00
41573;BME280;27286;47.870;19.006;2023-04-20T04:39:19;99204.75;;;4.58;100.00
41573;BME280;27286;47.870;19.006;2023-04-20T04:41:45;99202.00;;;4.65;100.00
41573;BME280;27286;47.870;19.006;2023-04-20T04:44:11;99203.59;;;4.72;100.00
41573;BME280;27286;47.870;19.006;2023-04-20T04:46:36;99207.72;;;4.79;100.00
41573;BME280;27286;47.870;19.006;2023-04-20T04:49:02;99213.59;;;4.86;100.00
41573;BME280;27286;47.870;19.006;2023-04-20T04:51:28;99209.06;;;4.97;100.00
41573;BME280;27286;47.870;19.006;2023-04-20T04:53:54;99207.13;;;5.07;100.00
41573;BME280;27286;47.870;19.006;2023-04-20T04:56:20;99208.63;;;5.16;100.00
41573;BME280;27286;47.870;19.006;2023-04-20T04:58:45;99209.41;;;5.19;100.00
41573;BME280;27286;47.870;19.006;2023-04-20T05:01:12;99208.47;;;5.23;100.00
41573;BME280;27286;47.870;19.006;2023-04-20T05:03:37;99210.91;;;5.29;100.00
41573;BME280;27286;47.870;19.006;2023-04-20T05:06:03;99210.75;;;5.35;100.00
41573;BME280;27286;47.870;19.006;2023-04-20T05:08:28;99213.06;;;5.48;100.00
41573;BME280;27286;47.870;19.006;2023-04-20T05:10:56;99223.09;;;5.60;100.00
41573;BME280;27286;47.870;19.006;2023-04-20T05:13:21;99220.22;;;5.70;100.00
41573;BME280;27286;47.870;19.006;2023-04-20T05:15:46;99220.72;;;5.85;100.00
41573;BME280;27286;47.870;19.006;2023-04-20T05:18:12;99231.63;;;5.97;100.00
41573;BME280;27286;47.870;19.006;2023-04-20T05:20:37;99223.50;;;6.13;100.00
41573;BME280;27286;47.870;19.006;2023-04-20T05:23:03;99222.19;;;6.29;100.00
41573;BME280;27286;47.870;19.006;2023-04-20T05:25:29;99220.88;;;6.45;100.00
41573;BME280;27286;47.870;19.006;2023-04-20T05:27:54;99224.63;;;6.64;100.00
41573;BME280;27286;47.870;19.006;2023-04-20T05:30:19;99223.16;;;6.85;100.00
41573;BME280;27286;47.870;19.006;2023-04-20T05:32:45;99218.22;;;7.07;100.00
41573;BME280;27286;47.870;19.006;2023-04-20T05:35:10;99222.63;;;7.32;100.00
41573;BME280;27286;47.870;19.006;2023-04-20T05:37:36;99222.69;;;7.57;100.00
41573;BME280;27286;47.870;19.006;2023-04-20T05:40:01;99231.19;;;7.87;100.00
41573;BME280;27286;47.870;19.006;2023-04-20T05:42:26;99226.75;;;8.15;100.00
41573;BME280;27286;47.870;19.006;2023-04-20T05:44:52;99232.59;;;8.47;99.36
41573;BME280;27286;47.870;19.006;2023-04-20T05:47:17;99232.28;;;8.79;97.75
41573;BME280;27286;47.870;19.006;2023-04-20T05:49:43;99238.78;;;9.13;96.03
41573;BME280;27286;47.870;19.006;2023-04-20T05:52:10;99238.38;;;9.45;92.62
41573;BME280;27286;47.870;19.006;2023-04-20T05:54:35;99236.88;;;9.82;89.85
41573;BME280;27286;47.870;19.006;2023-04-20T05:57:01;99243.16;;;10.18;87.75
41573;BME280;27286;47.870;19.006;2023-04-20T05:59:26;99243.69;;;10.47;84.79
41573;BME280;27286;47.870;19.006;2023-04-20T06:01:52;99243.34;;;10.73;84.11
41573;BME280;27286;47.870;19.006;2023-04-20T06:04:17;99246.72;;;10.96;80.95
41573;BME280;27286;47.870;19.006;2023-04-20T06:06:43;99245.41;;;11.23;79.07
41573;BME280;27286;47.870;19.006;2023-04-20T06:09:08;99248.63;;;11.47;77.62
41573;BME280;27286;47.870;19.006;2023-04-20T06:11:34;99239.28;;;11.79;74.62
41573;BME280;27286;47.870;19.006;2023-04-20T06:13:59;99251.19;;;12.19;73.27
41573;BME280;27286;47.870;19.006;2023-04-20T06:16:25;99243.25;;;12.38;71.72
41573;BME280;27286;47.870;19.006;2023-04-20T06:18:50;99250.25;;;12.71;70.90
41573;BME280;27286;47.870;19.006;2023-04-20T06:21:16;99249.13;;;13.08;69.52
41573;BME280;27286;47.870;19.006;2023-04-20T06:23:42;99244.75;;;13.40;68.02
41573;BME280;27286;47.870;19.006;2023-04-20T06:26:08;99248.97;;;13.58;68.43
41573;BME280;27286;47.870;19.006;2023-04-20T06:28:35;99257.31;;;13.80;69.27
41573;BME280;27286;47.870;19.006;2023-04-20T06:31:01;99250.53;;;14.06;67.92
41573;BME280;27286;47.870;19.006;2023-04-20T06:33:26;99250.81;;;14.32;62.59
41573;BME280;27286;47.870;19.006;2023-04-20T06:35:52;99257.41;;;14.53;62.30
41573;BME280;27286;47.870;19.006;2023-04-20T06:38:19;99258.16;;;14.84;61.14
41573;BME280;27286;47.870;19.006;2023-04-20T06:40:45;99260.47;;;15.17;58.75
41573;BME280;27286;47.870;19.006;2023-04-20T06:43:10;99251.03;;;15.41;56.74
41573;BME280;27286;47.870;19.006;2023-04-20T06:45:36;99252.47;;;15.74;58.19
41573;BME280;27286;47.870;19.006;2023-04-20T06:48:01;99250.47;;;15.77;55.17
41573;BME280;27286;47.870;19.006;2023-04-20T06:50:27;99250.44;;;16.04;55.11
41573;BME280;27286;47.870;19.006;2023-04-20T06:52:52;99247.78;;;16.31;55.33
41573;BME280;27286;47.870;19.006;2023-04-20T06:55:18;99255.66;;;16.57;52.30
41573;BME280;27286;47.870;19.006;2023-04-20T06:57:43;99244.72;;;16.75;50.91
41573;BME280;27286;47.870;19.006;2023-04-20T07:00:10;99249.59;;;16.81;50.94
41573;BME280;27286;47.870;19.006;2023-04-20T07:02:43;99253.97;;;16.94;50.96
41573;BME280;27286;47.870;19.006;2023-04-20T07:05:09;99241.00;;;17.40;48.45
41573;BME280;27286;47.870;19.006;2023-04-20T07:07:35;99252.09;;;18.39;45.82
41573;BME280;27286;47.870;19.006;2023-04-20T07:10:01;99252.88;;;19.08;45.74
41573;BME280;27286;47.870;19.006;2023-04-20T07:12:26;99247.81;;;19.82;42.66
41573;BME280;27286;47.870;19.006;2023-04-20T07:14:51;99256.78;;;20.43;40.70
41573;BME280;27286;47.870;19.006;2023-04-20T07:17:17;99258.56;;;20.94;38.74
41573;BME280;27286;47.870;19.006;2023-04-20T07:19:42;99256.66;;;20.66;40.44
41573;BME280;27286;47.870;19.006;2023-04-20T07:22:08;99251.25;;;21.08;40.33
41573;BME280;27286;47.870;19.006;2023-04-20T07:24:33;99248.56;;;21.48;40.04
41573;BME280;27286;47.870;19.006;2023-04-20T07:26:59;99253.34;;;21.54;38.52
41573;BME280;27286;47.870;19.006;2023-04-20T07:29:25;99254.31;;;21.62;37.87
41573;BME280;27286;47.870;19.006;2023-04-20T07:31:50;99260.09;;;22.06;37.26
41573;BME280;27286;47.870;19.006;2023-04-20T07:34:15;99248.63;;;22.15;36.75
41573;BME280;27286;47.870;19.006;2023-04-20T07:36:41;99262.59;;;22.08;37.68
41573;BME280;27286;47.870;19.006;2023-04-20T07:39:06;99265.66;;;22.23;35.29
41573;BME280;27286;47.870;19.006;2023-04-20T07:41:32;99261.47;;;22.30;36.86
41573;BME280;27286;47.870;19.006;2023-04-20T07:43:57;99263.44;;;22.08;38.63
41573;BME280;27286;47.870;19.006;2023-04-20T07:46:23;99264.22;;;21.80;36.95
41573;BME280;27286;47.870;19.006;2023-04-20T07:48:48;99257.63;;;21.36;38.44
41573;BME280;27286;47.870;19.006;2023-04-20T07:51:14;99260.97;;;21.07;40.22
41573;BME280;27286;47.870;19.006;2023-04-20T07:53:40;99262.84;;;21.76;36.94
41573;BME280;27286;47.870;19.006;2023-04-20T07:56:06;99259.31;;;22.99;36.78
41573;BME280;27286;47.870;19.006;2023-04-20T07:58:31;99254.81;;;23.82;33.66
41573;BME280;27286;47.870;19.006;2023-04-20T08:00:57;99252.56;;;24.75;33.18
41573;BME280;27286;47.870;19.006;2023-04-20T08:03:22;99253.94;;;25.13;30.81
41573;BME280;27286;47.870;19.006;2023-04-20T08:05:48;99263.31;;;25.84;29.78
41573;BME280;27286;47.870;19.006;2023-04-20T08:08:13;99261.34;;;26.51;28.90
41573;BME280;27286;47.870;19.006;2023-04-20T08:10:39;99254.56;;;26.95;30.51
41573;BME280;27286;47.870;19.006;2023-04-20T08:13:04;99250.97;;;27.58;31.28
41573;BME280;27286;47.870;19.006;2023-04-20T08:15:30;99252.97;;;27.56;30.30
41573;BME280;27286;47.870;19.006;2023-04-20T08:17:55;99253.19;;;27.78;30.82
41573;BME280;27286;47.870;19.006;2023-04-20T08:20:21;99254.03;;;28.24;28.08
41573;BME280;27286;47.870;19.006;2023-04-20T08:22:46;99244.94;;;28.10;26.53
41573;BME280;27286;47.870;19.006;2023-04-20T08:25:11;99245.75;;;27.88;26.28
41573;BME280;27286;47.870;19.006;2023-04-20T08:27:37;99252.69;;;28.05;27.12
41573;BME280;27286;47.870;19.006;2023-04-20T08:30:02;99253.13;;;28.32;26.98
41573;BME280;27286;47.870;19.006;2023-04-20T08:32:28;99249.69;;;28.23;27.10
41573;BME280;27286;47.870;19.006;2023-04-20T08:34:54;99253.25;;;28.15;25.14
41573;BME280;27286;47.870;19.006;2023-04-20T08:37:20;99246.16;;;28.23;27.42
41573;BME280;27286;47.870;19.006;2023-04-20T08:39:45;99246.22;;;28.14;23.79
41573;BME280;27286;47.870;19.006;2023-04-20T08:42:11;99247.16;;;28.44;23.52
41573;BME280;27286;47.870;19.006;2023-04-20T08:44:36;99249.75;;;28.67;23.70
41573;BME280;27286;47.870;19.006;2023-04-20T08:47:02;99243.59;;;29.11;22.49
41573;BME280;27286;47.870;19.006;2023-04-20T08:49:28;99245.31;;;29.48;22.37
41573;BME280;27286;47.870;19.006;2023-04-20T08:51:54;99253.91;;;29.44;22.04
41573;BME280;27286;47.870;19.006;2023-04-20T08:54:20;99244.63;;;28.95;21.01
41573;BME280;27286;47.870;19.006;2023-04-20T08:56:46;99245.03;;;29.43;21.82
41573;BME280;27286;47.870;19.006;2023-04-20T08:59:12;99235.78;;;30.24;22.80
41573;BME280;27286;47.870;19.006;2023-04-20T09:01:42;99241.69;;;29.56;20.83
41573;BME280;27286;47.870;19.006;2023-04-20T09:04:20;99234.88;;;29.75;22.00
41573;BME280;27286;47.870;19.006;2023-04-20T09:06:47;99240.28;;;30.45;24.54
41573;BME280;27286;47.870;19.006;2023-04-20T09:09:14;99236.31;;;30.41;21.38
41573;BME280;27286;47.870;19.006;2023-04-20T09:11:40;99244.13;;;30.92;22.17
41573;BME280;27286;47.870;19.006;2023-04-20T09:14:10;99243.47;;;31.31;21.62
41573;BME280;27286;47.870;19.006;2023-04-20T09:16:53;99231.47;;;31.95;19.56
41573;BME280;27286;47.870;19.006;2023-04-20T09:19:25;99246.16;;;32.06;20.26
41573;BME280;27286;47.870;19.006;2023-04-20T09:21:52;99230.59;;;31.81;21.03
41573;BME280;27286;47.870;19.006;2023-04-20T09:24:19;99239.41;;;31.49;21.80
41573;BME280;27286;47.870;19.006;2023-04-20T09:26:45;99239.59;;;30.65;20.43
41573;BME280;27286;47.870;19.006;2023-04-20T09:29:21;99243.09;;;31.41;20.71
41573;BME280;27286;47.870;19.006;2023-04-20T09:31:48;99230.41;;;31.96;21.02
41573;BME280;27286;47.870;19.006;2023-04-20T09:34:14;99236.84;;;32.15;21.27
41573;BME280;27286;47.870;19.006;2023-04-20T09:36:45;99235.59;;;32.17;20.40
41573;BME280;27286;47.870;19.006;2023-04-20T09:39:21;99233.72;;;32.57;20.50
41573;BME280;27286;47.870;19.006;2023-04-20T09:41:47;99233.22;;;33.07;20.02
41573;BME280;27286;47.870;19.006;2023-04-20T09:44:15;99224.03;;;33.21;19.21
41573;BME280;27286;47.870;19.006;2023-04-20T09:46:41;99229.03;;;33.17;20.62
41573;BME280;27286;47.870;19.006;2023-04-20T09:49:09;99230.63;;;33.76;19.20
41573;BME280;27286;47.870;19.006;2023-04-20T09:51:37;99226.81;;;33.53;19.17
41573;BME280;27286;47.870;19.006;2023-04-20T09:54:04;99224.97;;;32.88;19.12
41573;BME280;27286;47.870;19.006;2023-04-20T09:56:31;99223.53;;;33.44;17.54
41573;BME280;27286;47.870;19.006;2023-04-20T09:58:58;99222.84;;;33.93;19.98
41573;BME280;27286;47.870;19.006;2023-04-20T10:01:23;99221.06;;;34.55;18.90
41573;BME280;27286;47.870;19.006;2023-04-20T10:03:50;99221.41;;;34.16;17.22
41573;BME280;27286;47.870;19.006;2023-04-20T10:06:30;99217.91;;;34.08;18.09
41573;BME280;27286;47.870;19.006;2023-04-20T10:08:56;99207.47;;;33.94;16.41
41573;BME280;27286;47.870;19.006;2023-04-20T10:14:13;99217.13;;;31.13;19.83
41573;BME280;27286;47.870;19.006;2023-04-20T10:16:40;99208.88;;;31.76;20.59
41573;BME280;27286;47.870;19.006;2023-04-20T10:19:05;99203.59;;;31.48;19.62
41573;BME280;27286;47.870;19.006;2023-04-20T10:21:31;99200.53;;;32.70;19.64
41573;BME280;27286;47.870;19.006;2023-04-20T10:23:58;99190.28;;;33.50;18.49
41573;BME280;27286;47.870;19.006;2023-04-20T10:26:37;99192.84;;;33.70;18.15
41573;BME280;27286;47.870;19.006;2023-04-20T10:29:04;99193.91;;;34.00;18.15
41573;BME280;27286;47.870;19.006;2023-04-20T10:31:37;99192.16;;;33.05;19.64
41573;BME280;27286;47.870;19.006;2023-04-20T10:34:04;99189.94;;;32.88;18.81
41573;BME280;27286;47.870;19.006;2023-04-20T10:36:31;99192.56;;;30.82;19.79
41573;BME280;27286;47.870;19.006;2023-04-20T10:38:58;99188.34;;;32.21;19.58
41573;BME280;27286;47.870;19.006;2023-04-20T10:41:25;99188.31;;;31.62;19.63
41573;BME280;27286;47.870;19.006;2023-04-20T10:43:51;99184.22;;;31.79;19.57
41573;BME280;27286;47.870;19.006;2023-04-20T10:46:21;99193.66;;;32.74;18.93
41573;BME280;27286;47.870;19.006;2023-04-20T10:48:59;99180.84;;;33.66;18.23
41573;BME280;27286;47.870;19.006;2023-04-20T10:51:26;99184.19;;;33.61;18.14
41573;BME280;27286;47.870;19.006;2023-04-20T10:54:05;99175.59;;;33.39;18.43
41573;BME280;27286;47.870;19.006;2023-04-20T10:56:41;99172.84;;;33.53;19.45
41573;BME280;27286;47.870;19.006;2023-04-20T10:59:08;99189.81;;;30.69;21.87
41573;BME280;27286;47.870;19.006;2023-04-20T11:01:33;99172.44;;;33.11;21.63
41573;BME280;27286;47.870;19.006;2023-04-20T11:03:59;99174.66;;;34.40;19.48
41573;BME280;27286;47.870;19.006;2023-04-20T11:06:25;99178.75;;;35.34;18.97
41573;BME280;27286;47.870;19.006;2023-04-20T11:08:51;99169.94;;;31.79;21.45
41573;BME280;27286;47.870;19.006;2023-04-20T11:11:22;99169.13;;;32.31;23.02
41573;BME280;27286;47.870;19.006;2023-04-20T11:14:05;99170.28;;;34.39;21.11
41573;BME280;27286;47.870;19.006;2023-04-20T11:16:31;99164.66;;;35.44;17.83
41573;BME280;27286;47.870;19.006;2023-04-20T11:18:57;99167.44;;;35.97;19.96
41573;BME280;27286;47.870;19.006;2023-04-20T11:21:43;99162.97;;;36.50;17.01
41573;BME280;27286;47.870;19.006;2023-04-20T11:24:18;99152.41;;;36.76;16.24
41573;BME280;27286;47.870;19.006;2023-04-20T11:26:44;99149.31;;;36.33;16.10
41573;BME280;27286;47.870;19.006;2023-04-20T11:29:10;99151.78;;;36.34;16.17
41573;BME280;27286;47.870;19.006;2023-04-20T11:31:37;99140.34;;;35.55;15.66
41573;BME280;27286;47.870;19.006;2023-04-20T11:34:03;99152.88;;;35.80;17.29
41573;BME280;27286;47.870;19.006;2023-04-20T11:36:29;99155.03;;;36.25;15.39
41573;BME280;27286;47.870;19.006;2023-04-20T11:39:05;99151.38;;;36.66;18.64
41573;BME280;27286;47.870;19.006;2023-04-20T11:41:31;99154.13;;;37.06;18.29
41573;BME280;27286;47.870;19.006;2023-04-20T11:43:56;99157.41;;;34.96;19.48
41573;BME280;27286;47.870;19.006;2023-04-20T11:46:22;99160.53;;;30.87;20.33
41573;BME280;27286;47.870;19.006;2023-04-20T11:48:47;99159.31;;;27.73;22.75
41573;BME280;27286;47.870;19.006;2023-04-20T11:51:13;99155.91;;;31.16;21.41
41573;BME280;27286;47.870;19.006;2023-04-20T11:53:39;99149.44;;;33.02;20.33
41573;BME280;27286;47.870;19.006;2023-04-20T11:56:06;99149.97;;;34.12;18.47
41573;BME280;27286;47.870;19.006;2023-04-20T11:58:31;99157.31;;;34.66;17.56
41573;BME280;27286;47.870;19.006;2023-04-20T12:00:57;99150.94;;;34.79;17.16
41573;BME280;27286;47.870;19.006;2023-04-20T12:03:22;99155.28;;;35.46;17.54
41573;BME280;27286;47.870;19.006;2023-04-20T12:05:48;99142.00;;;35.45;17.95
41573;BME280;27286;47.870;19.006;2023-04-20T12:08:13;99145.59;;;35.39;16.98
41573;BME280;27286;47.870;19.006;2023-04-20T12:10:41;99150.53;;;35.83;18.66
41573;BME280;27286;47.870;19.006;2023-04-20T12:13:06;99146.66;;;35.79;16.72
41573;BME280;27286;47.870;19.006;2023-04-20T12:15:32;99142.59;;;35.47;18.58
41573;BME280;27286;47.870;19.006;2023-04-20T12:17:58;99148.56;;;35.19;18.40
41573;BME280;27286;47.870;19.006;2023-04-20T12:20:24;99153.56;;;33.11;18.90
41573;BME280;27286;47.870;19.006;2023-04-20T12:22:49;99149.06;;;33.68;19.28
41573;BME280;27286;47.870;19.006;2023-04-20T12:25:15;99147.06;;;32.67;18.64
41573;BME280;27286;47.870;19.006;2023-04-20T12:27:40;99140.25;;;31.26;20.59
41573;BME280;27286;47.870;19.006;2023-04-20T12:30:06;99141.53;;;28.62;21.98
41573;BME280;27286;47.870;19.006;2023-04-20T12:32:33;99144.78;;;27.44;23.71
41573;BME280;27286;47.870;19.006;2023-04-20T12:34:59;99141.50;;;26.64;23.63
41573;BME280;27286;47.870;19.006;2023-04-20T12:37:24;99149.34;;;25.77;25.54
41573;BME280;27286;47.870;19.006;2023-04-20T12:39:51;99151.06;;;24.78;28.02
41573;BME280;27286;47.870;19.006;2023-04-20T12:42:16;99149.63;;;23.80;28.56
41573;BME280;27286;47.870;19.006;2023-04-20T12:44:42;99145.88;;;23.01;28.63
41573;BME280;27286;47.870;19.006;2023-04-20T12:47:07;99144.88;;;22.75;34.36
41573;BME280;27286;47.870;19.006;2023-04-20T12:49:33;99142.81;;;22.32;32.71